createdAt,value
2018-07-22T00:00:00.532Z,17
2018-07-22T00:01:00.529Z,16
2018-07-22T00:02:00.523Z,15
2018-07-22T00:03:00.530Z,16
2018-07-22T00:06:00.528Z,17
2018-07-22T00:07:00.557Z,18
2018-07-22T00:10:01.558Z,16
2018-07-22T00:12:00.554Z,15
2018-07-22T00:14:00.583Z,16
2018-07-22T00:15:00.534Z,16
2018-07-22T00:16:00.503Z,17
2018-07-22T00:18:00.521Z,16
2018-07-22T00:22:00.681Z,15
2018-07-22T00:27:00.561Z,17
2018-07-22T00:28:00.531Z,18
2018-07-22T00:30:00.534Z,18
2018-07-22T00:32:00.561Z,16
2018-07-22T00:33:00.533Z,15
2018-07-22T00:34:00.538Z,16
2018-07-22T00:35:00.533Z,17
2018-07-22T00:36:00.533Z,16
2018-07-22T00:37:00.562Z,17
2018-07-22T00:38:00.537Z,18
2018-07-22T00:39:00.536Z,17
2018-07-22T00:41:00.538Z,18
2018-07-22T00:42:00.570Z,19
2018-07-22T00:44:00.538Z,20
2018-07-22T00:45:00.509Z,20
2018-07-22T00:46:00.540Z,19
2018-07-22T00:47:00.568Z,18
2018-07-22T00:48:00.547Z,19
2018-07-22T00:49:00.545Z,18
2018-07-22T00:50:00.540Z,19
2018-07-22T00:53:00.570Z,18
2018-07-22T00:56:00.543Z,20
2018-07-22T00:58:00.569Z,19
2018-07-22T01:00:00.579Z,19
2018-07-22T01:02:00.541Z,20
2018-07-22T01:03:00.569Z,19
2018-07-22T01:04:00.567Z,18
2018-07-22T01:05:00.540Z,16
2018-07-22T01:06:00.539Z,15
2018-07-22T01:08:00.573Z,17
2018-07-22T01:09:00.539Z,19
2018-07-22T01:13:00.579Z,18
2018-07-22T01:14:00.539Z,16
2018-07-22T01:15:00.545Z,17
2018-07-22T01:16:00.540Z,16
2018-07-22T01:17:00.540Z,14
2018-07-22T01:18:00.571Z,15
2018-07-22T01:19:00.540Z,16
2018-07-22T01:24:00.577Z,15
2018-07-22T01:26:00.543Z,16
2018-07-22T01:27:00.542Z,18
2018-07-22T01:28:00.539Z,19
2018-07-22T01:30:00.586Z,19
2018-07-22T01:31:00.542Z,18
2018-07-22T01:34:00.539Z,20
2018-07-22T01:36:00.511Z,19
2018-07-22T01:38:00.541Z,17
2018-07-22T01:39:00.540Z,16
2018-07-22T01:40:00.508Z,15
2018-07-22T01:41:00.544Z,16
2018-07-22T01:42:00.544Z,15
2018-07-22T01:43:00.540Z,16
2018-07-22T01:44:00.543Z,18
2018-07-22T01:45:00.509Z,17
2018-07-22T01:46:00.510Z,16
2018-07-22T01:47:00.543Z,17
2018-07-22T01:49:00.547Z,15
2018-07-22T01:50:00.544Z,14
2018-07-22T01:52:00.567Z,15
2018-07-22T01:53:00.561Z,14
2018-07-22T01:54:00.544Z,15
2018-07-22T01:55:00.517Z,17
2018-07-22T01:56:00.547Z,18
2018-07-22T01:57:00.578Z,15
2018-07-22T01:58:00.546Z,17
2018-07-22T01:59:00.546Z,16
2018-07-22T02:00:00.545Z,17
2018-07-22T02:01:00.516Z,16
2018-07-22T02:02:00.572Z,17
2018-07-22T02:03:00.549Z,16
2018-07-22T02:04:00.547Z,17
2018-07-22T02:05:00.545Z,15
2018-07-22T02:06:00.572Z,17
2018-07-22T02:07:00.513Z,18
2018-07-22T02:08:00.549Z,16
2018-07-22T02:11:00.633Z,15
2018-07-22T02:13:00.545Z,17
2018-07-22T02:14:00.547Z,19
2018-07-22T02:15:00.552Z,17
2018-07-22T02:16:00.571Z,18
2018-07-22T02:17:00.513Z,16
2018-07-22T02:18:00.554Z,15
2018-07-22T02:20:00.610Z,17
2018-07-22T02:21:00.590Z,18
2018-07-22T02:23:00.548Z,19
2018-07-22T02:24:00.590Z,18
2018-07-22T02:26:00.577Z,17
2018-07-22T02:27:00.549Z,18
2018-07-22T02:30:00.674Z,20
2018-07-22T02:31:00.574Z,21
2018-07-22T02:32:00.548Z,19
2018-07-22T02:33:00.546Z,20
2018-07-22T02:34:00.550Z,19
2018-07-22T02:35:00.547Z,17
2018-07-22T02:36:00.547Z,15
2018-07-22T02:37:00.552Z,17
2018-07-22T02:40:00.553Z,18
2018-07-22T02:42:00.548Z,17
2018-07-22T02:43:00.548Z,16
2018-07-22T02:44:00.556Z,17
2018-07-22T02:45:00.551Z,16
2018-07-22T02:47:00.547Z,15
2018-07-22T02:48:00.548Z,14
2018-07-22T02:49:00.554Z,16
2018-07-22T02:50:00.594Z,17
2018-07-22T02:52:00.582Z,18
2018-07-22T02:53:00.551Z,19
2018-07-22T02:54:00.528Z,17
2018-07-22T02:55:00.549Z,16
2018-07-22T02:56:00.553Z,15
2018-07-22T02:57:00.585Z,14
2018-07-22T02:58:00.562Z,17
2018-07-22T03:00:00.560Z,17
2018-07-22T03:01:00.550Z,20
2018-07-22T03:02:00.582Z,22
2018-07-22T03:03:00.553Z,19
2018-07-22T03:04:00.524Z,20
2018-07-22T03:07:00.584Z,18
2018-07-22T03:08:00.550Z,20
2018-07-22T03:09:00.551Z,21
2018-07-22T03:10:00.520Z,20
2018-07-22T03:11:00.552Z,19
2018-07-22T03:12:00.583Z,20
2018-07-22T03:13:00.549Z,18
2018-07-22T03:15:00.550Z,16
2018-07-22T03:16:00.550Z,17
2018-07-22T03:17:00.587Z,18
2018-07-22T03:18:00.547Z,19
2018-07-22T03:20:00.551Z,20
2018-07-22T03:21:00.554Z,18
2018-07-22T03:24:00.554Z,17
2018-07-22T03:26:00.554Z,18
2018-07-22T03:27:00.589Z,17
2018-07-22T03:29:00.619Z,16
2018-07-22T03:30:00.557Z,14
2018-07-22T03:32:00.559Z,15
2018-07-22T03:35:00.561Z,18
2018-07-22T03:36:00.562Z,20
2018-07-22T03:37:00.584Z,19
2018-07-22T03:40:00.558Z,17
2018-07-22T03:41:00.559Z,14
2018-07-22T03:42:00.563Z,15
2018-07-22T03:44:00.560Z,13
2018-07-22T03:45:00.564Z,14
2018-07-22T03:46:00.528Z,16
2018-07-22T03:47:00.590Z,15
2018-07-22T03:48:00.587Z,17
2018-07-22T03:49:00.562Z,19
2018-07-22T03:50:00.562Z,20
2018-07-22T03:52:00.562Z,22
2018-07-22T03:53:00.590Z,21
2018-07-22T03:54:00.562Z,20
2018-07-22T03:55:00.564Z,19
2018-07-22T03:58:00.588Z,18
2018-07-22T04:00:00.564Z,19
2018-07-22T04:01:00.567Z,18
2018-07-22T04:02:00.564Z,15
2018-07-22T04:03:00.588Z,17
2018-07-22T04:04:00.562Z,16
2018-07-22T04:05:00.563Z,13
2018-07-22T04:06:00.570Z,15
2018-07-22T04:08:00.563Z,14
2018-07-22T04:09:00.534Z,16
2018-07-22T04:10:00.572Z,17
2018-07-22T04:11:00.567Z,16
2018-07-22T04:12:00.563Z,17
2018-07-22T04:13:00.565Z,18
2018-07-22T04:15:00.566Z,18
2018-07-22T04:18:00.568Z,19
2018-07-22T04:19:00.569Z,17
2018-07-22T04:22:00.601Z,16
2018-07-22T04:24:00.568Z,19
2018-07-22T04:25:00.569Z,20
2018-07-22T04:27:00.593Z,22
2018-07-22T04:28:00.567Z,21
2018-07-22T04:29:00.567Z,20
2018-07-22T04:30:00.568Z,18
2018-07-22T04:31:00.572Z,17
2018-07-22T04:32:00.599Z,14
2018-07-22T04:33:00.571Z,13
2018-07-22T04:34:00.568Z,14
2018-07-22T04:37:00.534Z,15
2018-07-22T04:39:00.697Z,14
2018-07-22T04:42:00.567Z,15
2018-07-22T04:43:00.576Z,14
2018-07-22T04:45:00.565Z,13
2018-07-22T04:46:00.592Z,15
2018-07-22T04:48:00.535Z,16
2018-07-22T04:51:00.589Z,14
2018-07-22T04:52:00.565Z,15
2018-07-22T04:53:00.566Z,17
2018-07-22T04:56:00.565Z,18
2018-07-22T04:58:00.569Z,16
2018-07-22T04:59:00.575Z,15
2018-07-22T05:00:00.598Z,17
2018-07-22T05:01:00.565Z,16
2018-07-22T05:04:00.569Z,17
2018-07-22T05:05:00.598Z,16
2018-07-22T05:07:00.574Z,15
2018-07-22T05:08:00.566Z,17
2018-07-22T05:09:00.565Z,16
2018-07-22T05:10:00.606Z,17
2018-07-22T05:11:00.567Z,19
2018-07-22T05:13:00.568Z,17
2018-07-22T05:14:00.534Z,18
2018-07-22T05:15:00.601Z,17
2018-07-22T05:16:00.568Z,15
2018-07-22T05:18:00.567Z,17
2018-07-22T05:20:00.666Z,18
2018-07-22T05:21:00.569Z,17
2018-07-22T05:22:00.570Z,16
2018-07-22T05:23:00.569Z,15
2018-07-22T05:24:00.568Z,14
2018-07-22T05:25:00.608Z,12
2018-07-22T05:26:00.571Z,15
2018-07-22T05:28:00.568Z,16
2018-07-22T05:30:00.729Z,17
2018-07-22T05:31:00.574Z,15
2018-07-22T05:32:00.567Z,17
2018-07-22T05:34:00.566Z,19
2018-07-22T05:36:00.561Z,20
2018-07-22T05:37:00.577Z,19
2018-07-22T05:43:00.697Z,18
2018-07-22T05:44:00.569Z,16
2018-07-22T05:45:00.570Z,15
2018-07-22T05:46:00.568Z,16
2018-07-22T05:47:00.536Z,15
2018-07-22T05:48:00.568Z,16
2018-07-22T05:51:00.634Z,17
2018-07-22T05:52:00.573Z,16
2018-07-22T05:55:00.603Z,17
2018-07-22T05:56:00.568Z,18
2018-07-22T05:58:00.569Z,17
2018-07-22T05:59:00.570Z,16
2018-07-22T06:00:00.593Z,14
2018-07-22T06:03:00.573Z,15
2018-07-22T06:04:00.569Z,17
2018-07-22T06:05:00.597Z,20
2018-07-22T06:06:00.568Z,19
2018-07-22T06:07:00.569Z,20
2018-07-22T06:08:00.573Z,19
2018-07-22T06:10:00.596Z,17
2018-07-22T06:11:00.567Z,20
2018-07-22T06:12:00.619Z,18
2018-07-22T06:14:00.568Z,17
2018-07-22T06:15:00.591Z,17
2018-07-22T06:16:00.567Z,16
2018-07-22T06:17:00.632Z,15
2018-07-22T06:19:00.591Z,16
2018-07-22T06:20:00.567Z,17
2018-07-22T06:21:00.570Z,14
2018-07-22T06:22:00.630Z,15
2018-07-22T06:23:00.573Z,17
2018-07-22T06:26:00.568Z,18
2018-07-22T06:27:00.568Z,19
2018-07-22T06:28:00.593Z,17
2018-07-22T06:29:00.568Z,16
2018-07-22T06:30:00.632Z,17
2018-07-22T06:32:00.536Z,15
2018-07-22T06:33:00.601Z,17
2018-07-22T06:34:00.598Z,16
2018-07-22T06:35:00.568Z,15
2018-07-22T06:37:00.631Z,14
2018-07-22T06:40:00.660Z,15
2018-07-22T06:42:00.567Z,16
2018-07-22T06:43:00.570Z,15
2018-07-22T06:44:00.596Z,18
2018-07-22T06:45:00.568Z,16
2018-07-22T06:46:00.594Z,17
2018-07-22T06:47:00.569Z,18
2018-07-22T06:48:00.568Z,17
2018-07-22T06:49:00.562Z,15
2018-07-22T06:50:00.568Z,17
2018-07-22T06:51:00.567Z,15
2018-07-22T06:52:00.570Z,16
2018-07-22T06:53:00.573Z,17
2018-07-22T06:54:00.601Z,18
2018-07-22T06:55:00.545Z,16
2018-07-22T06:56:00.570Z,17
2018-07-22T06:57:00.571Z,16
2018-07-22T06:59:00.660Z,15
2018-07-22T07:00:00.570Z,15
2018-07-22T07:01:00.583Z,14
2018-07-22T07:04:00.594Z,16
2018-07-22T07:06:00.570Z,17
2018-07-22T07:09:00.605Z,15
2018-07-22T07:12:00.571Z,16
2018-07-22T07:14:00.606Z,17
2018-07-22T07:15:00.572Z,17
2018-07-22T07:16:00.575Z,16
2018-07-22T07:17:00.580Z,15
2018-07-22T07:18:00.576Z,16
2018-07-22T07:19:00.614Z,17
2018-07-22T07:20:00.572Z,18
2018-07-22T07:21:00.574Z,19
2018-07-22T07:22:00.637Z,20
2018-07-22T07:23:00.581Z,19
2018-07-22T07:24:00.606Z,17
2018-07-22T07:26:00.574Z,16
2018-07-22T07:28:00.575Z,17
2018-07-22T07:30:00.600Z,16
2018-07-22T07:32:00.580Z,15
2018-07-22T07:33:00.576Z,16
2018-07-22T07:35:00.569Z,17
2018-07-22T07:36:00.578Z,18
2018-07-22T07:37:00.575Z,21
2018-07-22T07:38:00.579Z,20
2018-07-22T07:39:00.574Z,19
2018-07-22T07:40:00.630Z,20
2018-07-22T07:41:00.578Z,19
2018-07-22T07:42:00.547Z,17
2018-07-22T07:43:00.581Z,18
2018-07-22T07:45:00.578Z,17
2018-07-22T07:46:00.578Z,19
2018-07-22T07:48:00.575Z,18
2018-07-22T07:49:00.578Z,19
2018-07-22T07:51:00.575Z,17
2018-07-22T07:53:00.577Z,16
2018-07-22T07:54:00.582Z,17
2018-07-22T07:55:00.579Z,19
2018-07-22T07:56:00.577Z,20
2018-07-22T07:59:00.643Z,18
2018-07-22T08:00:00.551Z,16
2018-07-22T08:01:00.578Z,14
2018-07-22T08:02:00.600Z,15
2018-07-22T08:04:00.641Z,14
2018-07-22T08:05:00.576Z,13
2018-07-22T08:06:00.576Z,14
2018-07-22T08:07:00.600Z,13
2018-07-22T08:08:00.579Z,14
2018-07-22T08:09:00.580Z,15
2018-07-22T08:10:00.577Z,17
2018-07-22T08:11:00.613Z,16
2018-07-22T08:12:00.639Z,17
2018-07-22T08:14:00.582Z,18
2018-07-22T08:15:00.549Z,18
2018-07-22T08:17:00.608Z,19
2018-07-22T08:18:00.576Z,18
2018-07-22T08:19:00.600Z,19
2018-07-22T08:20:00.578Z,17
2018-07-22T08:22:00.651Z,16
2018-07-22T08:23:00.546Z,18
2018-07-22T08:24:00.578Z,17
2018-07-22T08:25:00.577Z,18
2018-07-22T08:27:00.655Z,16
2018-07-22T08:28:00.575Z,14
2018-07-22T08:29:00.577Z,13
2018-07-22T08:30:00.576Z,13
2018-07-22T08:31:00.583Z,15
2018-07-22T08:32:00.619Z,18
2018-07-22T08:33:00.578Z,19
2018-07-22T08:35:00.576Z,20
2018-07-22T08:37:00.585Z,18
2018-07-22T08:38:00.577Z,17
2018-07-22T08:39:00.545Z,15
2018-07-22T08:44:00.576Z,18
2018-07-22T08:45:00.577Z,17
2018-07-22T08:48:00.578Z,18
2018-07-22T08:50:00.642Z,16
2018-07-22T08:55:00.580Z,17
2018-07-22T08:57:00.580Z,18
2018-07-22T09:00:00.644Z,18
2018-07-22T09:01:00.579Z,19
2018-07-22T09:02:00.585Z,18
2018-07-22T09:03:00.604Z,17
2018-07-22T09:04:00.580Z,16
2018-07-22T09:06:00.579Z,17
2018-07-22T09:07:00.587Z,15
2018-07-22T09:08:00.615Z,14
2018-07-22T09:09:00.582Z,15
2018-07-22T09:10:00.583Z,16
2018-07-22T09:11:00.580Z,15
2018-07-22T09:12:00.585Z,16
2018-07-22T09:13:00.606Z,19
2018-07-22T09:14:00.580Z,17
2018-07-22T09:15:00.580Z,17
2018-07-22T09:16:00.585Z,18
2018-07-22T09:18:00.663Z,16
2018-07-22T09:19:00.587Z,17
2018-07-22T09:20:00.581Z,16
2018-07-22T09:23:00.614Z,15
2018-07-22T09:24:00.585Z,14
2018-07-22T09:25:00.581Z,15
2018-07-22T09:28:00.607Z,18
2018-07-22T09:30:00.646Z,17
2018-07-22T09:31:00.610Z,16
2018-07-22T09:32:00.581Z,17
2018-07-22T09:34:00.582Z,16
2018-07-22T09:37:00.610Z,17
2018-07-22T09:38:00.587Z,16
2018-07-22T09:41:00.682Z,17
2018-07-22T09:42:00.585Z,15
2018-07-22T09:43:00.585Z,16
2018-07-22T09:44:00.584Z,18
2018-07-22T09:45:00.586Z,19
2018-07-22T09:46:00.608Z,20
2018-07-22T09:48:00.628Z,21
2018-07-22T09:49:00.582Z,22
2018-07-22T09:50:00.585Z,21
2018-07-22T09:51:00.609Z,19
2018-07-22T09:52:00.586Z,18
2018-07-22T09:53:00.584Z,17
2018-07-22T09:54:00.583Z,15
2018-07-22T09:55:00.584Z,16
2018-07-22T09:57:00.611Z,17
2018-07-22T09:58:00.587Z,15
2018-07-22T10:00:00.649Z,15
2018-07-22T10:01:00.578Z,17
2018-07-22T10:03:00.553Z,18
2018-07-22T10:04:00.584Z,17
2018-07-22T10:05:00.586Z,18
2018-07-22T10:06:00.615Z,15
2018-07-22T10:07:00.590Z,14
2018-07-22T10:10:00.714Z,13
2018-07-22T10:11:00.619Z,14
2018-07-22T10:13:00.619Z,15
2018-07-22T10:15:00.589Z,16
2018-07-22T10:18:00.618Z,14
2018-07-22T10:19:00.586Z,15
2018-07-22T10:20:00.587Z,16
2018-07-22T10:21:00.586Z,18
2018-07-22T10:23:00.619Z,19
2018-07-22T10:24:00.587Z,18
2018-07-22T10:25:00.588Z,16
2018-07-22T10:29:00.678Z,17
2018-07-22T10:30:00.592Z,20
2018-07-22T10:31:00.600Z,18
2018-07-22T10:32:00.590Z,19
2018-07-22T10:34:00.627Z,18
2018-07-22T10:35:00.595Z,15
2018-07-22T10:37:00.590Z,14
2018-07-22T10:40:00.763Z,15
2018-07-22T10:41:00.592Z,17
2018-07-22T10:42:00.591Z,16
2018-07-22T10:43:00.594Z,15
2018-07-22T10:44:00.592Z,17
2018-07-22T10:45:00.590Z,18
2018-07-22T10:46:00.592Z,19
2018-07-22T10:47:00.594Z,18
2018-07-22T10:48:00.561Z,20
2018-07-22T10:49:00.597Z,17
2018-07-22T10:50:00.616Z,16
2018-07-22T10:51:00.679Z,15
2018-07-22T10:54:00.561Z,16
2018-07-22T10:55:00.626Z,15
2018-07-22T10:56:00.596Z,16
2018-07-22T10:57:00.594Z,19
2018-07-22T10:58:00.596Z,17
2018-07-22T11:00:00.632Z,19
2018-07-22T11:02:00.603Z,17
2018-07-22T11:03:00.594Z,19
2018-07-22T11:05:00.636Z,18
2018-07-22T11:06:00.563Z,17
2018-07-22T11:07:00.595Z,16
2018-07-22T11:08:00.595Z,14
2018-07-22T11:09:00.597Z,13
2018-07-22T11:10:00.629Z,14
2018-07-22T11:12:00.601Z,13
2018-07-22T11:13:00.565Z,14
2018-07-22T11:14:00.597Z,16
2018-07-22T11:15:00.633Z,15
2018-07-22T11:17:00.601Z,18
2018-07-22T11:18:00.597Z,19
2018-07-22T11:19:00.597Z,16
2018-07-22T11:20:00.631Z,17
2018-07-22T11:22:00.606Z,15
2018-07-22T11:23:00.597Z,14
2018-07-22T11:24:00.598Z,15
2018-07-22T11:25:00.629Z,14
2018-07-22T11:26:00.605Z,13
2018-07-22T11:29:00.668Z,12
2018-07-22T11:30:00.634Z,14
2018-07-22T11:31:00.600Z,16
2018-07-22T11:32:00.596Z,17
2018-07-22T11:33:00.608Z,18
2018-07-22T11:34:00.598Z,19
2018-07-22T11:35:00.633Z,20
2018-07-22T11:37:00.662Z,19
2018-07-22T11:38:00.662Z,18
2018-07-22T11:40:01.655Z,15
2018-07-22T11:43:00.598Z,17
2018-07-22T11:44:00.659Z,16
2018-07-22T11:45:00.632Z,17
2018-07-22T11:46:00.600Z,16
2018-07-22T11:48:00.602Z,17
2018-07-22T11:49:00.602Z,16
2018-07-22T11:50:00.636Z,17
2018-07-22T11:51:00.602Z,20
2018-07-22T11:54:00.604Z,19
2018-07-22T11:55:00.626Z,18
2018-07-22T11:56:00.600Z,16
2018-07-22T11:57:00.665Z,17
2018-07-22T11:58:00.628Z,16
2018-07-22T11:59:00.582Z,15
2018-07-22T12:00:00.618Z,15
2018-07-22T12:03:00.639Z,14
2018-07-22T12:04:00.604Z,17
2018-07-22T12:05:00.604Z,16
2018-07-22T12:07:00.604Z,17
2018-07-22T12:08:00.640Z,16
2018-07-22T12:09:00.607Z,15
2018-07-22T12:10:00.608Z,17
2018-07-22T12:11:00.607Z,16
2018-07-22T12:12:00.607Z,14
2018-07-22T12:13:00.666Z,15
2018-07-22T12:14:00.606Z,16
2018-07-22T12:15:00.579Z,15
2018-07-22T12:17:00.736Z,16
2018-07-22T12:18:00.642Z,17
2018-07-22T12:19:00.608Z,16
2018-07-22T12:20:00.608Z,17
2018-07-22T12:21:01.635Z,18
2018-07-22T12:23:00.646Z,17
2018-07-22T12:24:00.672Z,16
2018-07-22T12:26:00.609Z,15
2018-07-22T12:28:00.643Z,16
2018-07-22T12:30:00.673Z,16
2018-07-22T12:32:00.609Z,15
2018-07-22T12:33:00.637Z,14
2018-07-22T12:34:00.613Z,16
2018-07-22T12:35:00.609Z,17
2018-07-22T12:36:00.680Z,15
2018-07-22T12:39:00.763Z,14
2018-07-22T12:40:00.580Z,13
2018-07-22T12:41:00.616Z,14
2018-07-22T12:42:00.619Z,16
2018-07-22T12:43:00.640Z,17
2018-07-22T12:44:00.675Z,19
2018-07-22T12:45:00.614Z,21
2018-07-22T12:46:00.612Z,19
2018-07-22T12:47:00.628Z,17
2018-07-22T12:48:00.648Z,16
2018-07-22T12:49:00.611Z,15
2018-07-22T12:50:00.616Z,13
2018-07-22T12:51:00.616Z,14
2018-07-22T12:52:00.615Z,15
2018-07-22T12:53:00.644Z,14
2018-07-22T12:54:00.583Z,12
2018-07-22T12:55:00.678Z,13
2018-07-22T12:58:00.614Z,15
2018-07-22T12:59:00.616Z,14
2018-07-22T13:00:00.613Z,16
2018-07-22T13:01:05.618Z,18
2018-07-22T13:02:00.618Z,17
2018-07-22T13:03:00.648Z,18
2018-07-22T13:04:00.581Z,19
2018-07-22T13:06:00.613Z,17
2018-07-22T13:07:00.615Z,19
2018-07-22T13:08:00.639Z,17
2018-07-22T13:11:00.616Z,16
2018-07-22T13:13:00.678Z,15
2018-07-22T13:14:00.626Z,16
2018-07-22T13:15:00.616Z,16
2018-07-22T13:17:00.590Z,15
2018-07-22T13:21:00.707Z,14
2018-07-22T13:23:00.619Z,15
2018-07-22T13:24:00.649Z,14
2018-07-22T13:25:00.619Z,16
2018-07-22T13:28:00.619Z,15
2018-07-22T13:30:00.644Z,14
2018-07-22T13:31:00.684Z,16
2018-07-22T13:35:00.758Z,17
2018-07-22T13:38:05.667Z,19
2018-07-22T13:43:00.684Z,18
2018-07-22T13:45:00.648Z,16
2018-07-22T13:46:00.620Z,17
2018-07-22T13:47:00.624Z,15
2018-07-22T13:48:00.622Z,17
2018-07-22T13:51:00.686Z,16
2018-07-22T13:52:00.633Z,17
2018-07-22T13:53:00.618Z,16
2018-07-22T13:54:00.620Z,15
2018-07-22T13:56:00.622Z,14
2018-07-22T13:57:00.621Z,15
2018-07-22T13:59:00.626Z,18
2018-07-22T14:00:00.648Z,19
2018-07-22T14:01:00.628Z,21
2018-07-22T14:04:00.629Z,19
2018-07-22T14:05:00.657Z,18
2018-07-22T14:06:00.633Z,17
2018-07-22T14:08:00.629Z,15
2018-07-22T14:09:00.625Z,14
2018-07-22T14:10:00.656Z,15
2018-07-22T14:12:00.670Z,16
2018-07-22T14:13:00.631Z,17
2018-07-22T14:14:00.594Z,18
2018-07-22T14:15:00.660Z,16
2018-07-22T14:17:00.626Z,15
2018-07-22T14:18:00.628Z,14
2018-07-22T14:19:00.595Z,13
2018-07-22T14:20:00.663Z,14
2018-07-22T14:21:00.628Z,15
2018-07-22T14:22:00.631Z,13
2018-07-22T14:23:00.629Z,12
2018-07-22T14:24:00.629Z,15
2018-07-22T14:26:00.629Z,18
2018-07-22T14:28:00.640Z,20
2018-07-22T14:29:00.629Z,17
2018-07-22T14:30:00.634Z,17
2018-07-22T14:31:00.634Z,13
2018-07-22T14:32:00.629Z,16
2018-07-22T14:33:00.631Z,14
2018-07-22T14:34:00.636Z,16
2018-07-22T14:36:00.630Z,17
2018-07-22T14:37:00.630Z,16
2018-07-22T14:38:01.661Z,19
2018-07-22T14:39:00.631Z,20
2018-07-22T14:40:00.631Z,18
2018-07-22T14:42:00.634Z,16
2018-07-22T14:43:00.634Z,15
2018-07-22T14:44:00.639Z,16
2018-07-22T14:45:00.632Z,17
2018-07-22T14:46:00.629Z,18
2018-07-22T14:47:00.692Z,20
2018-07-22T14:49:00.794Z,17
2018-07-22T14:52:00.632Z,15
2018-07-22T14:53:00.633Z,16
2018-07-22T14:55:00.668Z,15
2018-07-22T14:56:00.632Z,14
2018-07-22T14:57:00.631Z,16
2018-07-22T14:58:00.633Z,17
2018-07-22T14:59:00.639Z,18
2018-07-22T15:00:00.666Z,19
2018-07-22T15:02:00.634Z,17
2018-07-22T15:03:00.638Z,15
2018-07-22T15:05:00.669Z,16
2018-07-22T15:06:00.638Z,15
2018-07-22T15:07:00.650Z,16
2018-07-22T15:08:00.633Z,17
2018-07-22T15:10:00.728Z,18
2018-07-22T15:11:00.632Z,19
2018-07-22T15:12:00.639Z,18
2018-07-22T15:13:00.634Z,17
2018-07-22T15:15:00.665Z,16
2018-07-22T15:16:00.670Z,15
2018-07-22T15:17:00.640Z,17
2018-07-22T15:18:00.637Z,18
2018-07-22T15:19:00.635Z,16
2018-07-22T15:20:00.639Z,17
2018-07-22T15:22:00.637Z,16
2018-07-22T15:23:00.637Z,17
2018-07-22T15:25:00.641Z,16
2018-07-22T15:28:00.640Z,14
2018-07-22T15:29:00.638Z,16
2018-07-22T15:30:00.644Z,15
2018-07-22T15:32:00.645Z,16
2018-07-22T15:36:00.644Z,17
2018-07-22T15:37:00.668Z,16
2018-07-22T15:39:00.707Z,14
2018-07-22T15:40:00.649Z,16
2018-07-22T15:42:00.641Z,17
2018-07-22T15:43:00.660Z,18
2018-07-22T15:44:00.642Z,19
2018-07-22T15:45:00.648Z,18
2018-07-22T15:46:00.667Z,17
2018-07-22T15:47:00.641Z,19
2018-07-22T15:49:00.641Z,18
2018-07-22T15:51:00.666Z,16
2018-07-22T15:52:00.613Z,15
2018-07-22T15:55:00.713Z,14
2018-07-22T15:56:00.737Z,17
2018-07-22T15:57:00.646Z,15
2018-07-22T16:00:00.709Z,15
2018-07-22T16:01:00.672Z,14
2018-07-22T16:02:00.651Z,15
2018-07-22T16:03:00.645Z,16
2018-07-22T16:04:00.646Z,15
2018-07-22T16:07:00.680Z,14
2018-07-22T16:09:00.711Z,18
2018-07-22T16:11:00.674Z,19
2018-07-22T16:14:00.647Z,15
2018-07-22T16:15:05.651Z,15
2018-07-22T16:16:00.676Z,16
2018-07-22T16:17:00.653Z,14
2018-07-22T16:18:00.649Z,13
2018-07-22T16:19:00.653Z,14
2018-07-22T16:20:00.648Z,15
2018-07-22T16:21:00.701Z,14
2018-07-22T16:22:00.647Z,17
2018-07-22T16:24:00.647Z,16
2018-07-22T16:26:00.684Z,18
2018-07-22T16:28:00.652Z,20
2018-07-22T16:30:00.713Z,19
2018-07-22T16:31:00.683Z,16
2018-07-22T16:32:00.646Z,15
2018-07-22T16:33:00.616Z,14
2018-07-22T16:35:00.614Z,15
2018-07-22T16:36:00.680Z,16
2018-07-22T16:37:00.647Z,17
2018-07-22T16:38:00.645Z,16
2018-07-22T16:39:00.614Z,17
2018-07-22T16:40:00.616Z,15
2018-07-22T16:42:00.649Z,18
2018-07-22T16:43:00.650Z,17
2018-07-22T16:45:00.647Z,18
2018-07-22T16:47:00.647Z,15
2018-07-22T16:48:00.646Z,18
2018-07-22T16:49:00.647Z,19
2018-07-22T16:50:00.670Z,20
2018-07-22T16:52:00.648Z,21
2018-07-22T16:53:00.648Z,19
2018-07-22T16:54:00.618Z,18
2018-07-22T16:55:00.659Z,19
2018-07-22T16:56:00.656Z,17
2018-07-22T16:58:05.658Z,19
2018-07-22T16:59:00.652Z,20
2018-07-22T17:00:00.654Z,17
2018-07-22T17:01:00.652Z,19
2018-07-22T17:02:00.652Z,17
2018-07-22T17:03:00.651Z,15
2018-07-22T17:05:00.651Z,17
2018-07-22T17:06:00.626Z,15
2018-07-22T17:07:00.685Z,14
2018-07-22T17:08:00.653Z,15
2018-07-22T17:09:00.654Z,14
2018-07-22T17:10:00.654Z,13
2018-07-22T17:11:00.660Z,15
2018-07-22T17:13:00.654Z,16
2018-07-22T17:14:00.654Z,17
2018-07-22T17:15:00.653Z,18
2018-07-22T17:16:00.624Z,17
2018-07-22T17:18:00.653Z,15
2018-07-22T17:19:00.654Z,14
2018-07-22T17:20:00.655Z,12
2018-07-22T17:22:00.658Z,13
2018-07-22T17:23:00.656Z,14
2018-07-22T17:25:00.657Z,16
2018-07-22T17:26:00.655Z,17
2018-07-22T17:28:00.656Z,16
2018-07-22T17:29:00.655Z,17
2018-07-22T17:30:00.660Z,17
2018-07-22T17:31:00.625Z,16
2018-07-22T17:34:00.666Z,17
2018-07-22T17:39:00.718Z,18
2018-07-22T17:41:00.659Z,17
2018-07-22T17:42:00.670Z,15
2018-07-22T17:43:00.661Z,16
2018-07-22T17:44:00.663Z,15
2018-07-22T17:45:00.662Z,17
2018-07-22T17:46:00.668Z,18
2018-07-22T17:47:00.671Z,20
2018-07-22T17:49:00.725Z,18
2018-07-22T17:50:00.630Z,17
2018-07-22T17:51:00.695Z,18
2018-07-22T17:52:00.674Z,17
2018-07-22T17:54:00.686Z,16
2018-07-22T17:55:00.659Z,17
2018-07-22T17:56:01.688Z,16
2018-07-22T17:57:00.630Z,17
2018-07-22T17:58:00.665Z,16
2018-07-22T18:00:00.725Z,15
2018-07-22T18:01:00.663Z,17
2018-07-22T18:03:00.662Z,18
2018-07-22T18:05:00.668Z,19
2018-07-22T18:06:00.694Z,16
2018-07-22T18:07:00.662Z,17
2018-07-22T18:09:00.798Z,19
2018-07-22T18:10:00.661Z,20
2018-07-22T18:11:00.694Z,21
2018-07-22T18:12:00.664Z,20
2018-07-22T18:14:00.630Z,18
2018-07-22T18:15:00.661Z,17
2018-07-22T18:16:00.654Z,15
2018-07-22T18:18:00.663Z,16
2018-07-22T18:19:00.671Z,17
2018-07-22T18:20:00.667Z,18
2018-07-22T18:23:00.798Z,16
2018-07-22T18:24:00.662Z,17
2018-07-22T18:26:00.671Z,16
2018-07-22T18:27:00.669Z,15
2018-07-22T18:28:00.665Z,16
2018-07-22T18:29:00.670Z,18
2018-07-22T18:30:00.663Z,18
2018-07-22T18:34:00.672Z,16
2018-07-22T18:35:00.669Z,15
2018-07-22T18:36:00.691Z,16
2018-07-22T18:37:00.712Z,17
2018-07-22T18:38:00.664Z,15
2018-07-22T18:39:00.664Z,16
2018-07-22T18:40:00.664Z,15
2018-07-22T18:41:00.692Z,16
2018-07-22T18:42:00.665Z,17
2018-07-22T18:43:00.664Z,16
2018-07-22T18:44:00.664Z,14
2018-07-22T18:45:00.668Z,14
2018-07-22T18:46:00.693Z,13
2018-07-22T18:47:00.668Z,12
2018-07-22T18:48:00.664Z,15
2018-07-22T18:50:00.732Z,16
2018-07-22T18:52:00.666Z,17
2018-07-22T18:53:00.666Z,15
2018-07-22T18:54:00.666Z,17
2018-07-22T18:56:00.692Z,16
2018-07-22T18:57:00.704Z,15
2018-07-22T18:59:00.673Z,16
2018-07-22T19:00:00.674Z,14
2018-07-22T19:01:00.673Z,15
2018-07-22T19:02:00.702Z,16
2018-07-22T19:04:00.667Z,14
2018-07-22T19:05:00.733Z,16
2018-07-22T19:06:00.670Z,17
2018-07-22T19:07:00.700Z,19
2018-07-22T19:08:00.668Z,20
2018-07-22T19:09:00.656Z,19
2018-07-22T19:11:00.674Z,17
2018-07-22T19:12:00.718Z,15
2018-07-22T19:13:00.722Z,14
2018-07-22T19:14:00.672Z,13
2018-07-22T19:15:00.671Z,15
2018-07-22T19:16:00.674Z,16
2018-07-22T19:17:00.707Z,17
2018-07-22T19:18:00.673Z,19
2018-07-22T19:19:00.711Z,21
2018-07-22T19:20:00.672Z,19
2018-07-22T19:21:00.672Z,18
2018-07-22T19:22:00.710Z,17
2018-07-22T19:23:00.671Z,16
2018-07-22T19:24:00.672Z,14
2018-07-22T19:25:00.671Z,16
2018-07-22T19:26:00.671Z,18
2018-07-22T19:27:00.707Z,17
2018-07-22T19:29:00.673Z,19
2018-07-22T19:30:00.671Z,18
2018-07-22T19:31:00.672Z,17
2018-07-22T19:32:00.706Z,18
2018-07-22T19:33:00.672Z,17
2018-07-22T19:34:00.672Z,16
2018-07-22T19:35:00.673Z,15
2018-07-22T19:37:00.674Z,13
2018-07-22T19:40:00.783Z,12
2018-07-22T19:41:00.677Z,13
2018-07-22T19:43:00.674Z,14
2018-07-22T19:44:00.680Z,13
2018-07-22T19:45:00.680Z,15
2018-07-22T19:46:00.676Z,16
2018-07-22T19:48:00.737Z,15
2018-07-22T19:50:00.738Z,12
2018-07-22T19:51:00.676Z,11
2018-07-22T19:52:00.643Z,12
2018-07-22T19:53:00.710Z,13
2018-07-22T19:54:00.676Z,14
2018-07-22T19:55:00.677Z,17
2018-07-22T19:58:00.712Z,16